sensor_id;sensor_type;location;lat;lon;timestamp;pressure;altitude;pressure_sealevel;temperature;humidity
20350;BME280;10332;50.208;18.988;2023-01-26T00:01:31;98724.72;;;2.61;80.29
20350;BME280;10332;50.208;18.988;2023-01-26T00:03:59;98723.63;;;2.68;80.69
20350;BME280;10332;50.208;18.988;2023-01-26T00:06:26;98728.09;;;2.63;80.30
20350;BME280;10332;50.208;18.988;2023-01-26T00:08:55;98727.78;;;2.73;80.34
20350;BME280;10332;50.208;18.988;2023-01-26T00:11:26;98723.97;;;2.55;80.20
20350;BME280;10332;50.208;18.988;2023-01-26T00:13:59;98721.88;;;2.70;80.34
20350;BME280;10332;50.208;18.988;2023-01-26T00:16:27;98721.09;;;2.66;80.06
20350;BME280;10332;50.208;18.988;2023-01-26T00:18:55;98713.56;;;2.59;79.93
20350;BME280;10332;50.208;18.988;2023-01-26T00:21:23;98713.25;;;2.71;80.11
20350;BME280;10332;50.208;18.988;2023-01-26T00:23:52;98706.66;;;2.61;80.35
20350;BME280;10332;50.208;18.988;2023-01-26T00:26:25;98706.38;;;2.71;80.54
20350;BME280;10332;50.208;18.988;2023-01-26T00:28:53;98702.88;;;2.74;80.08
20350;BME280;10332;50.208;18.988;2023-01-26T00:31:26;98694.88;;;2.50;80.42
20350;BME280;10332;50.208;18.988;2023-01-26T00:33:55;98695.84;;;2.46;80.90
20350;BME280;10332;50.208;18.988;2023-01-26T00:36:23;98695.84;;;2.46;81.00
20350;BME280;10332;50.208;18.988;2023-01-26T00:38:51;98693.19;;;2.49;81.06
20350;BME280;10332;50.208;18.988;2023-01-26T00:41:18;98693.28;;;2.46;81.25
20350;BME280;10332;50.208;18.988;2023-01-26T00:44:04;98696.66;;;2.48;81.27
20350;BME280;10332;50.208;18.988;2023-01-26T00:46:32;98697.31;;;2.56;81.49
20350;BME280;10332;50.208;18.988;2023-01-26T00:49:00;98682.44;;;2.66;80.98
20350;BME280;10332;50.208;18.988;2023-01-26T00:51:27;98685.75;;;2.71;81.16
20350;BME280;10332;50.208;18.988;2023-01-26T00:53:56;98683.38;;;2.64;80.82
20350;BME280;10332;50.208;18.988;2023-01-26T00:56:24;98680.81;;;2.64;81.08
20350;BME280;10332;50.208;18.988;2023-01-26T00:58:54;98688.84;;;2.51;80.88
20350;BME280;10332;50.208;18.988;2023-01-26T01:01:21;98681.78;;;2.58;81.07
20350;BME280;10332;50.208;18.988;2023-01-26T01:03:49;98678.09;;;2.68;81.16
20350;BME280;10332;50.208;18.988;2023-01-26T01:06:18;98680.66;;;2.70;81.38
20350;BME280;10332;50.208;18.988;2023-01-26T01:08:46;98689.81;;;2.80;81.26
20350;BME280;10332;50.208;18.988;2023-01-26T01:11:13;98683.19;;;2.71;80.87
20350;BME280;10332;50.208;18.988;2023-01-26T01:13:41;98681.19;;;2.81;81.10
20350;BME280;10332;50.208;18.988;2023-01-26T01:16:13;98682.84;;;2.83;81.13
20350;BME280;10332;50.208;18.988;2023-01-26T01:18:41;98680.78;;;2.95;81.02
20350;BME280;10332;50.208;18.988;2023-01-26T01:21:14;98685.84;;;2.99;81.05
20350;BME280;10332;50.208;18.988;2023-01-26T01:23:43;98680.25;;;2.83;80.59
20350;BME280;10332;50.208;18.988;2023-01-26T01:26:11;98673.16;;;2.92;80.69
20350;BME280;10332;50.208;18.988;2023-01-26T01:28:40;98675.03;;;2.85;80.12
20350;BME280;10332;50.208;18.988;2023-01-26T01:31:14;98669.00;;;2.86;79.98
20350;BME280;10332;50.208;18.988;2023-01-26T01:33:43;98660.63;;;2.79;80.36
20350;BME280;10332;50.208;18.988;2023-01-26T01:36:14;98658.78;;;2.83;80.52
20350;BME280;10332;50.208;18.988;2023-01-26T01:38:44;98647.50;;;2.56;80.96
20350;BME280;10332;50.208;18.988;2023-01-26T01:41:15;98656.31;;;2.47;80.92
20350;BME280;10332;50.208;18.988;2023-01-26T01:43:44;98650.81;;;2.60;80.96
20350;BME280;10332;50.208;18.988;2023-01-26T01:46:33;98649.19;;;2.57;80.71
20350;BME280;10332;50.208;18.988;2023-01-26T01:49:09;98642.25;;;2.59;81.04
20350;BME280;10332;50.208;18.988;2023-01-26T01:51:50;98651.56;;;2.65;81.01
20350;BME280;10332;50.208;18.988;2023-01-26T01:54:32;98642.94;;;2.66;80.84
20350;BME280;10332;50.208;18.988;2023-01-26T01:57:10;98644.19;;;2.51;81.42
20350;BME280;10332;50.208;18.988;2023-01-26T01:59:52;98642.50;;;2.50;81.71
20350;BME280;10332;50.208;18.988;2023-01-26T02:02:21;98643.78;;;2.66;81.49
20350;BME280;10332;50.208;18.988;2023-01-26T02:04:49;98646.09;;;2.75;81.49
20350;BME280;10332;50.208;18.988;2023-01-26T02:07:16;98639.91;;;2.82;81.46
20350;BME280;10332;50.208;18.988;2023-01-26T02:09:44;98641.31;;;2.93;81.35
20350;BME280;10332;50.208;18.988;2023-01-26T02:12:32;98633.31;;;3.02;81.25
20350;BME280;10332;50.208;18.988;2023-01-26T02:15:01;98636.75;;;3.02;80.92
20350;BME280;10332;50.208;18.988;2023-01-26T02:17:29;98628.84;;;3.08;80.78
20350;BME280;10332;50.208;18.988;2023-01-26T02:22:53;98627.56;;;3.22;80.46
20350;BME280;10332;50.208;18.988;2023-01-26T02:28:25;98630.16;;;3.22;79.92
20350;BME280;10332;50.208;18.988;2023-01-26T02:30:55;98635.63;;;3.11;79.59
20350;BME280;10332;50.208;18.988;2023-01-26T02:33:26;98624.63;;;3.04;79.57
20350;BME280;10332;50.208;18.988;2023-01-26T02:35:54;98626.16;;;3.11;79.89
20350;BME280;10332;50.208;18.988;2023-01-26T02:38:28;98633.94;;;3.10;79.81
20350;BME280;10332;50.208;18.988;2023-01-26T02:41:10;98619.31;;;3.10;79.58
20350;BME280;10332;50.208;18.988;2023-01-26T02:43:39;98626.09;;;3.13;79.81
20350;BME280;10332;50.208;18.988;2023-01-26T02:46:07;98620.81;;;3.18;79.88
20350;BME280;10332;50.208;18.988;2023-01-26T02:48:34;98606.84;;;3.25;79.86
20350;BME280;10332;50.208;18.988;2023-01-26T02:51:20;98611.91;;;3.28;79.95
20350;BME280;10332;50.208;18.988;2023-01-26T02:53:47;98603.88;;;3.09;79.20
20350;BME280;10332;50.208;18.988;2023-01-26T02:56:15;98586.94;;;3.00;79.17
20350;BME280;10332;50.208;18.988;2023-01-26T02:58:42;98595.22;;;2.82;79.38
20350;BME280;10332;50.208;18.988;2023-01-26T03:01:10;98588.22;;;2.85;79.45
20350;BME280;10332;50.208;18.988;2023-01-26T03:03:37;98583.06;;;2.85;79.42
20350;BME280;10332;50.208;18.988;2023-01-26T03:06:12;98587.50;;;2.82;79.89
20350;BME280;10332;50.208;18.988;2023-01-26T03:08:40;98581.75;;;2.72;80.27
20350;BME280;10332;50.208;18.988;2023-01-26T03:11:08;98583.56;;;2.69;80.43
20350;BME280;10332;50.208;18.988;2023-01-26T03:13:36;98578.34;;;2.72;80.57
20350;BME280;10332;50.208;18.988;2023-01-26T03:16:08;98572.44;;;2.67;81.06
20350;BME280;10332;50.208;18.988;2023-01-26T03:18:36;98570.09;;;2.59;81.31
20350;BME280;10332;50.208;18.988;2023-01-26T03:21:22;98570.09;;;2.59;81.74
20350;BME280;10332;50.208;18.988;2023-01-26T03:24:12;98565.72;;;2.63;81.38
20350;BME280;10332;50.208;18.988;2023-01-26T03:26:59;98573.22;;;2.70;81.53
20350;BME280;10332;50.208;18.988;2023-01-26T03:29:45;98565.13;;;2.82;81.24
20350;BME280;10332;50.208;18.988;2023-01-26T03:32:14;98563.16;;;2.91;81.14
20350;BME280;10332;50.208;18.988;2023-01-26T03:34:41;98560.22;;;3.03;80.98
20350;BME280;10332;50.208;18.988;2023-01-26T03:37:11;98555.00;;;3.04;80.73
20350;BME280;10332;50.208;18.988;2023-01-26T03:39:39;98558.06;;;3.17;80.61
20350;BME280;10332;50.208;18.988;2023-01-26T03:42:25;98559.59;;;3.23;80.43
20350;BME280;10332;50.208;18.988;2023-01-26T03:45:11;98562.78;;;3.31;80.12
20350;BME280;10332;50.208;18.988;2023-01-26T03:48:11;98565.19;;;3.37;80.08
20350;BME280;10332;50.208;18.988;2023-01-26T03:50:57;98554.69;;;3.43;79.95
20350;BME280;10332;50.208;18.988;2023-01-26T03:53:43;98553.00;;;3.42;79.81
20350;BME280;10332;50.208;18.988;2023-01-26T03:56:31;98554.56;;;3.46;79.49
20350;BME280;10332;50.208;18.988;2023-01-26T03:59:02;98540.56;;;3.53;79.72
20350;BME280;10332;50.208;18.988;2023-01-26T04:01:43;98530.91;;;3.60;79.78
20350;BME280;10332;50.208;18.988;2023-01-26T04:04:30;98526.34;;;3.66;79.50
20350;BME280;10332;50.208;18.988;2023-01-26T04:07:17;98517.09;;;3.61;78.98
20350;BME280;10332;50.208;18.988;2023-01-26T04:10:03;98515.97;;;3.68;79.07
20350;BME280;10332;50.208;18.988;2023-01-26T04:12:30;98528.16;;;3.64;78.76
20350;BME280;10332;50.208;18.988;2023-01-26T04:14:58;98528.16;;;3.64;78.69
20350;BME280;10332;50.208;18.988;2023-01-26T04:17:43;98531.63;;;3.63;78.55
20350;BME280;10332;50.208;18.988;2023-01-26T04:20:29;98523.25;;;3.57;78.46
20350;BME280;10332;50.208;18.988;2023-01-26T04:23:19;98523.75;;;3.41;78.76
20350;BME280;10332;50.208;18.988;2023-01-26T04:25:47;98516.34;;;3.31;79.21
20350;BME280;10332;50.208;18.988;2023-01-26T04:28:15;98518.06;;;3.30;79.60
20350;BME280;10332;50.208;18.988;2023-01-26T04:30:43;98520.75;;;3.27;79.66
20350;BME280;10332;50.208;18.988;2023-01-26T04:33:10;98519.59;;;3.09;80.06
20350;BME280;10332;50.208;18.988;2023-01-26T04:35:38;98509.97;;;2.88;80.82
20350;BME280;10332;50.208;18.988;2023-01-26T04:38:05;98506.84;;;3.05;80.77
20350;BME280;10332;50.208;18.988;2023-01-26T04:40:33;98501.59;;;3.08;80.84
20350;BME280;10332;50.208;18.988;2023-01-26T04:43:00;98503.25;;;3.10;80.59
20350;BME280;10332;50.208;18.988;2023-01-26T04:45:28;98518.00;;;3.05;80.52
20350;BME280;10332;50.208;18.988;2023-01-26T04:47:55;98498.25;;;3.04;80.65
20350;BME280;10332;50.208;18.988;2023-01-26T04:50:23;98511.66;;;2.89;80.97
20350;BME280;10332;50.208;18.988;2023-01-26T04:52:50;98503.88;;;2.91;81.33
20350;BME280;10332;50.208;18.988;2023-01-26T04:55:18;98508.41;;;2.82;81.51
20350;BME280;10332;50.208;18.988;2023-01-26T04:57:45;98508.81;;;2.69;82.37
20350;BME280;10332;50.208;18.988;2023-01-26T05:00:13;98499.34;;;2.69;82.67
20350;BME280;10332;50.208;18.988;2023-01-26T05:02:40;98509.66;;;2.69;82.63
20350;BME280;10332;50.208;18.988;2023-01-26T05:05:08;98496.53;;;2.77;82.52
20350;BME280;10332;50.208;18.988;2023-01-26T05:07:36;98494.72;;;2.80;82.31
20350;BME280;10332;50.208;18.988;2023-01-26T05:10:04;98496.63;;;2.74;82.18
20350;BME280;10332;50.208;18.988;2023-01-26T05:12:32;98482.63;;;2.82;82.14
20350;BME280;10332;50.208;18.988;2023-01-26T05:14:59;98479.53;;;2.71;82.05
20350;BME280;10332;50.208;18.988;2023-01-26T05:17:27;98476.13;;;2.69;82.50
20350;BME280;10332;50.208;18.988;2023-01-26T05:19:54;98477.53;;;2.81;82.38
20350;BME280;10332;50.208;18.988;2023-01-26T05:22:21;98474.72;;;2.89;82.12
20350;BME280;10332;50.208;18.988;2023-01-26T05:24:49;98476.34;;;2.91;82.33
20350;BME280;10332;50.208;18.988;2023-01-26T05:27:16;98476.25;;;2.94;82.31
20350;BME280;10332;50.208;18.988;2023-01-26T05:29:51;98473.47;;;3.00;82.28
20350;BME280;10332;50.208;18.988;2023-01-26T05:32:18;98475.22;;;3.00;82.10
20350;BME280;10332;50.208;18.988;2023-01-26T05:34:46;98483.78;;;3.00;82.05
20350;BME280;10332;50.208;18.988;2023-01-26T05:37:13;98482.47;;;2.87;81.79
20350;BME280;10332;50.208;18.988;2023-01-26T05:39:41;98485.66;;;2.95;82.04
20350;BME280;10332;50.208;18.988;2023-01-26T05:42:11;98486.38;;;3.00;81.66
20350;BME280;10332;50.208;18.988;2023-01-26T05:44:39;98475.25;;;2.98;81.70
20350;BME280;10332;50.208;18.988;2023-01-26T05:47:06;98474.97;;;3.07;81.62
20350;BME280;10332;50.208;18.988;2023-01-26T05:49:34;98476.66;;;3.08;81.32
20350;BME280;10332;50.208;18.988;2023-01-26T05:52:09;98471.69;;;3.02;81.29
20350;BME280;10332;50.208;18.988;2023-01-26T05:54:37;98483.00;;;2.98;81.38
20350;BME280;10332;50.208;18.988;2023-01-26T05:57:05;98489.84;;;2.99;81.40
20350;BME280;10332;50.208;18.988;2023-01-26T05:59:33;98484.91;;;2.92;81.84
20350;BME280;10332;50.208;18.988;2023-01-26T06:02:00;98487.56;;;2.90;81.41
20350;BME280;10332;50.208;18.988;2023-01-26T06:04:28;98482.63;;;2.82;81.72
20350;BME280;10332;50.208;18.988;2023-01-26T06:06:58;98485.22;;;2.82;81.73
20350;BME280;10332;50.208;18.988;2023-01-26T06:09:27;98483.34;;;2.88;81.96
20350;BME280;10332;50.208;18.988;2023-01-26T06:11:56;98479.75;;;2.92;81.91
20350;BME280;10332;50.208;18.988;2023-01-26T06:14:26;98476.94;;;2.99;82.08
20350;BME280;10332;50.208;18.988;2023-01-26T06:16:53;98483.78;;;3.00;81.73
20350;BME280;10332;50.208;18.988;2023-01-26T06:19:23;98478.75;;;2.97;81.26
20350;BME280;10332;50.208;18.988;2023-01-26T06:21:50;98482.94;;;3.00;81.30
20350;BME280;10332;50.208;18.988;2023-01-26T06:24:19;98478.75;;;2.97;81.27
20350;BME280;10332;50.208;18.988;2023-01-26T06:26:47;98486.31;;;3.02;81.39
20350;BME280;10332;50.208;18.988;2023-01-26T06:29:16;98484.53;;;3.04;81.26
20350;BME280;10332;50.208;18.988;2023-01-26T06:31:43;98485.25;;;3.09;81.02
20350;BME280;10332;50.208;18.988;2023-01-26T06:34:11;98478.59;;;3.02;81.30
20350;BME280;10332;50.208;18.988;2023-01-26T06:36:38;98485.28;;;3.07;81.40
20350;BME280;10332;50.208;18.988;2023-01-26T06:39:10;98479.13;;;3.11;81.28
20350;BME280;10332;50.208;18.988;2023-01-26T06:41:39;98485.13;;;3.12;81.51
20350;BME280;10332;50.208;18.988;2023-01-26T06:44:08;98478.22;;;3.12;81.23
20350;BME280;10332;50.208;18.988;2023-01-26T06:46:36;98478.19;;;3.14;81.12
20350;BME280;10332;50.208;18.988;2023-01-26T06:49:04;98481.03;;;3.06;81.05
20350;BME280;10332;50.208;18.988;2023-01-26T06:54:12;98478.34;;;3.09;80.93
20350;BME280;10332;50.208;18.988;2023-01-26T06:56:40;98476.47;;;3.15;81.26
20350;BME280;10332;50.208;18.988;2023-01-26T06:59:09;98472.28;;;3.10;80.84
20350;BME280;10332;50.208;18.988;2023-01-26T07:01:40;98467.03;;;3.13;80.73
20350;BME280;10332;50.208;18.988;2023-01-26T07:04:10;98464.44;;;3.13;80.76
20350;BME280;10332;50.208;18.988;2023-01-26T07:06:37;98459.56;;;3.06;80.59
20350;BME280;10332;50.208;18.988;2023-01-26T07:09:05;98456.88;;;3.09;80.96
20350;BME280;10332;50.208;18.988;2023-01-26T07:11:32;98457.66;;;3.11;81.03
20350;BME280;10332;50.208;18.988;2023-01-26T07:14:00;98457.59;;;3.12;80.86
20350;BME280;10332;50.208;18.988;2023-01-26T07:16:27;98452.25;;;3.19;80.91
20350;BME280;10332;50.208;18.988;2023-01-26T07:18:57;98456.22;;;3.29;80.92
20350;BME280;10332;50.208;18.988;2023-01-26T07:21:25;98453.75;;;3.26;80.51
20350;BME280;10332;50.208;18.988;2023-01-26T07:23:54;98454.34;;;3.34;79.97
20350;BME280;10332;50.208;18.988;2023-01-26T07:26:22;98452.09;;;3.23;79.87
20350;BME280;10332;50.208;18.988;2023-01-26T07:28:50;98448.66;;;3.23;80.33
20350;BME280;10332;50.208;18.988;2023-01-26T07:31:17;98453.75;;;3.26;80.64
20350;BME280;10332;50.208;18.988;2023-01-26T07:33:45;98455.44;;;3.27;80.33
20350;BME280;10332;50.208;18.988;2023-01-26T07:36:12;98457.09;;;3.28;80.67
20350;BME280;10332;50.208;18.988;2023-01-26T07:38:40;98446.69;;;3.31;80.57
20350;BME280;10332;50.208;18.988;2023-01-26T07:41:11;98451.44;;;3.43;80.56
20350;BME280;10332;50.208;18.988;2023-01-26T07:43:39;98446.19;;;3.46;80.19
20350;BME280;10332;50.208;18.988;2023-01-26T07:46:09;98454.50;;;3.54;79.83
20350;BME280;10332;50.208;18.988;2023-01-26T07:48:37;98452.47;;;3.37;79.66
20350;BME280;10332;50.208;18.988;2023-01-26T07:51:05;98452.06;;;3.50;79.80
20350;BME280;10332;50.208;18.988;2023-01-26T07:53:35;98459.78;;;3.51;79.18
20350;BME280;10332;50.208;18.988;2023-01-26T07:56:13;98451.03;;;3.55;79.58
20350;BME280;10332;50.208;18.988;2023-01-26T07:58:42;98453.41;;;3.61;79.77
20350;BME280;10332;50.208;18.988;2023-01-26T08:01:14;98452.38;;;3.65;79.57
20350;BME280;10332;50.208;18.988;2023-01-26T08:03:41;98449.66;;;3.70;79.45
20350;BME280;10332;50.208;18.988;2023-01-26T08:06:12;98455.22;;;3.83;79.42
20350;BME280;10332;50.208;18.988;2023-01-26T08:08:42;98450.78;;;3.86;78.68
20350;BME280;10332;50.208;18.988;2023-01-26T08:11:11;98446.50;;;3.87;78.65
20350;BME280;10332;50.208;18.988;2023-01-26T08:13:38;98455.03;;;3.89;78.11
20350;BME280;10332;50.208;18.988;2023-01-26T08:16:09;98455.03;;;3.89;77.55
20350;BME280;10332;50.208;18.988;2023-01-26T08:18:41;98463.56;;;3.91;77.60
20350;BME280;10332;50.208;18.988;2023-01-26T08:21:10;98452.19;;;3.95;78.05
20350;BME280;10332;50.208;18.988;2023-01-26T08:23:39;98443.19;;;4.07;78.06
20350;BME280;10332;50.208;18.988;2023-01-26T08:26:12;98440.53;;;4.08;77.12
20350;BME280;10332;50.208;18.988;2023-01-26T08:28:40;98437.69;;;4.16;77.20
20350;BME280;10332;50.208;18.988;2023-01-26T08:31:19;98440.09;;;4.20;77.03
20350;BME280;10332;50.208;18.988;2023-01-26T08:33:49;98442.19;;;4.34;76.96
20350;BME280;10332;50.208;18.988;2023-01-26T08:36:18;98450.56;;;4.41;76.75
20350;BME280;10332;50.208;18.988;2023-01-26T08:38:49;98441.84;;;4.43;76.14
20350;BME280;10332;50.208;18.988;2023-01-26T08:41:18;98446.09;;;4.44;75.70
20350;BME280;10332;50.208;18.988;2023-01-26T08:43:45;98443.63;;;4.41;76.11
20350;BME280;10332;50.208;18.988;2023-01-26T08:46:14;98441.84;;;4.43;77.71
20350;BME280;10332;50.208;18.988;2023-01-26T08:48:41;98440.94;;;4.66;77.84
20350;BME280;10332;50.208;18.988;2023-01-26T08:51:09;98449.06;;;4.79;76.36
20350;BME280;10332;50.208;18.988;2023-01-26T08:53:37;98447.47;;;4.76;74.97
20350;BME280;10332;50.208;18.988;2023-01-26T08:56:07;98452.16;;;4.89;74.72
20350;BME280;10332;50.208;18.988;2023-01-26T08:58:37;98459.78;;;4.92;74.22
20350;BME280;10332;50.208;18.988;2023-01-26T09:01:12;98452.50;;;4.79;74.28
20350;BME280;10332;50.208;18.988;2023-01-26T09:03:41;98453.16;;;4.84;75.20
20350;BME280;10332;50.208;18.988;2023-01-26T09:06:12;98459.66;;;4.95;74.92
20350;BME280;10332;50.208;18.988;2023-01-26T09:08:41;98460.44;;;4.97;73.87
20350;BME280;10332;50.208;18.988;2023-01-26T09:11:09;98454.22;;;5.01;72.73
20350;BME280;10332;50.208;18.988;2023-01-26T09:13:37;98453.81;;;4.90;72.69
20350;BME280;10332;50.208;18.988;2023-01-26T09:16:14;98451.22;;;4.90;72.88
20350;BME280;10332;50.208;18.988;2023-01-26T09:18:41;98456.41;;;4.90;73.20
20350;BME280;10332;50.208;18.988;2023-01-26T09:21:09;98458.75;;;4.96;72.88
20350;BME280;10332;50.208;18.988;2023-01-26T09:23:36;98455.22;;;4.98;72.79
20350;BME280;10332;50.208;18.988;2023-01-26T09:26:05;98452.63;;;4.98;72.46
20350;BME280;10332;50.208;18.988;2023-01-26T09:28:32;98442.06;;;5.03;72.46
20350;BME280;10332;50.208;18.988;2023-01-26T09:31:08;98447.78;;;5.11;72.74
20350;BME280;10332;50.208;18.988;2023-01-26T09:33:36;98453.16;;;5.06;72.50
20350;BME280;10332;50.208;18.988;2023-01-26T09:36:10;98441.84;;;5.09;72.23
20350;BME280;10332;50.208;18.988;2023-01-26T09:38:38;98442.38;;;5.17;71.80
20350;BME280;10332;50.208;18.988;2023-01-26T09:44:09;98438.47;;;5.07;72.10
20350;BME280;10332;50.208;18.988;2023-01-26T09:49:25;98427.41;;;5.03;72.16
20350;BME280;10332;50.208;18.988;2023-01-26T09:52:05;98424.22;;;4.97;72.84
20350;BME280;10332;50.208;18.988;2023-01-26T09:54:49;98426.25;;;5.10;73.12
20350;BME280;10332;50.208;18.988;2023-01-26T09:57:48;98423.25;;;5.21;73.09
20350;BME280;10332;50.208;18.988;2023-01-26T10:00:25;98420.88;;;4.95;72.21
20350;BME280;10332;50.208;18.988;2023-01-26T10:03:29;98416.09;;;5.26;71.75
20350;BME280;10332;50.208;18.988;2023-01-26T10:06:25;98417.25;;;5.19;71.23
20350;BME280;10332;50.208;18.988;2023-01-26T10:08:59;98426.22;;;5.32;71.29
20350;BME280;10332;50.208;18.988;2023-01-26T10:11:51;98426.78;;;5.19;71.78
20350;BME280;10332;50.208;18.988;2023-01-26T10:14:50;98417.63;;;5.32;71.64
20350;BME280;10332;50.208;18.988;2023-01-26T10:17:34;98418.31;;;5.35;71.52
20350;BME280;10332;50.208;18.988;2023-01-26T10:22:50;98414.50;;;5.44;70.48
20350;BME280;10332;50.208;18.988;2023-01-26T10:25:29;98406.09;;;5.59;70.21
20350;BME280;10332;50.208;18.988;2023-01-26T10:28:13;98409.63;;;5.77;69.75
20350;BME280;10332;50.208;18.988;2023-01-26T10:30:46;98408.69;;;5.98;69.06
20350;BME280;10332;50.208;18.988;2023-01-26T10:35:47;98398.59;;;5.92;69.89
20350;BME280;10332;50.208;18.988;2023-01-26T10:38:41;98403.13;;;6.08;69.16
20350;BME280;10332;50.208;18.988;2023-01-26T10:44:01;98403.44;;;6.38;68.80
20350;BME280;10332;50.208;18.988;2023-01-26T10:46:38;98388.41;;;6.27;68.95
20350;BME280;10332;50.208;18.988;2023-01-26T10:51:38;98390.91;;;6.29;69.82
20350;BME280;10332;50.208;18.988;2023-01-26T10:54:25;98394.31;;;6.12;68.81
20350;BME280;10332;50.208;18.988;2023-01-26T10:56:59;98388.22;;;6.13;69.35
20350;BME280;10332;50.208;18.988;2023-01-26T10:59:38;98391.06;;;6.25;69.64
20350;BME280;10332;50.208;18.988;2023-01-26T11:07:43;98368.13;;;6.54;69.38
20350;BME280;10332;50.208;18.988;2023-01-26T11:13:04;98370.88;;;6.51;68.39
20350;BME280;10332;50.208;18.988;2023-01-26T11:15:40;98364.00;;;6.50;68.76
20350;BME280;10332;50.208;18.988;2023-01-26T11:21:36;98371.56;;;6.54;68.86
20350;BME280;10332;50.208;18.988;2023-01-26T11:30:18;98359.09;;;6.97;67.59
20350;BME280;10332;50.208;18.988;2023-01-26T11:33:16;98357.06;;;7.21;67.32
20350;BME280;10332;50.208;18.988;2023-01-26T11:35:53;98354.91;;;7.12;66.38
20350;BME280;10332;50.208;18.988;2023-01-26T11:38:40;98352.47;;;7.09;64.93
20350;BME280;10332;50.208;18.988;2023-01-26T11:50:54;98328.78;;;7.15;64.05
20350;BME280;10332;50.208;18.988;2023-01-26T11:54:07;98333.44;;;6.91;63.36
20350;BME280;10332;50.208;18.988;2023-01-26T11:59:47;98316.06;;;6.76;64.28
20350;BME280;10332;50.208;18.988;2023-01-26T12:02:36;98319.50;;;6.76;64.44
20350;BME280;10332;50.208;18.988;2023-01-26T12:05:24;98316.72;;;6.62;64.07
20350;BME280;10332;50.208;18.988;2023-01-26T12:08:06;98313.53;;;6.57;64.82
20350;BME280;10332;50.208;18.988;2023-01-26T12:11:02;98303.63;;;6.65;64.83
20350;BME280;10332;50.208;18.988;2023-01-26T12:14:20;98300.03;;;6.68;64.90
20350;BME280;10332;50.208;18.988;2023-01-26T12:20:22;98297.28;;;6.71;64.65
20350;BME280;10332;50.208;18.988;2023-01-26T12:25:40;98297.13;;;6.57;63.51
20350;BME280;10332;50.208;18.988;2023-01-26T12:28:21;98296.78;;;6.45;63.79
20350;BME280;10332;50.208;18.988;2023-01-26T12:34:13;98291.50;;;6.47;63.68
20350;BME280;10332;50.208;18.988;2023-01-26T12:40:25;98286.41;;;6.45;63.30
20350;BME280;10332;50.208;18.988;2023-01-26T12:43:42;98286.31;;;6.47;63.49
20350;BME280;10332;50.208;18.988;2023-01-26T12:46:14;98280.84;;;6.53;63.65
20350;BME280;10332;50.208;18.988;2023-01-26T12:48:52;98285.16;;;6.35;64.20
20350;BME280;10332;50.208;18.988;2023-01-26T12:51:35;98283.81;;;6.45;64.47
20350;BME280;10332;50.208;18.988;2023-01-26T12:54:31;98279.38;;;6.30;64.20
20350;BME280;10332;50.208;18.988;2023-01-26T12:57:11;98274.69;;;6.38;64.44
20350;BME280;10332;50.208;18.988;2023-01-26T12:59:41;98281.53;;;6.39;64.51
20350;BME280;10332;50.208;18.988;2023-01-26T13:04:45;98273.75;;;6.39;65.30
20350;BME280;10332;50.208;18.988;2023-01-26T13:07:37;98275.81;;;6.33;65.38
20350;BME280;10332;50.208;18.988;2023-01-26T13:13:00;98283.03;;;6.26;65.51
20350;BME280;10332;50.208;18.988;2023-01-26T13:18:55;98266.91;;;6.02;65.52
20350;BME280;10332;50.208;18.988;2023-01-26T13:26:56;98275.78;;;5.59;66.22
20350;BME280;10332;50.208;18.988;2023-01-26T13:31:55;98279.09;;;5.42;67.50
20350;BME280;10332;50.208;18.988;2023-01-26T13:34:35;98264.56;;;5.39;67.84
20350;BME280;10332;50.208;18.988;2023-01-26T13:37:26;98268.03;;;5.38;67.83
20350;BME280;10332;50.208;18.988;2023-01-26T13:40:00;98271.16;;;5.26;67.68
20350;BME280;10332;50.208;18.988;2023-01-26T13:51:11;98273.59;;;5.29;68.60
20350;BME280;10332;50.208;18.988;2023-01-26T13:59:11;98259.38;;;5.39;68.42
20350;BME280;10332;50.208;18.988;2023-01-26T14:01:52;98262.72;;;5.41;68.61
20350;BME280;10332;50.208;18.988;2023-01-26T14:04:23;98265.91;;;5.28;68.73
20350;BME280;10332;50.208;18.988;2023-01-26T14:07:04;98261.72;;;5.25;68.79
20350;BME280;10332;50.208;18.988;2023-01-26T14:09:47;98261.81;;;5.24;68.80
20350;BME280;10332;50.208;18.988;2023-01-26T14:12:31;98258.22;;;5.26;68.70
20350;BME280;10332;50.208;18.988;2023-01-26T14:15:04;98256.69;;;5.22;68.88
20350;BME280;10332;50.208;18.988;2023-01-26T14:17:46;98256.56;;;5.25;69.10
20350;BME280;10332;50.208;18.988;2023-01-26T14:20:31;98258.47;;;5.20;69.33
20350;BME280;10332;50.208;18.988;2023-01-26T14:23:13;98259.69;;;5.13;69.36
20350;BME280;10332;50.208;18.988;2023-01-26T14:25:47;98264.06;;;5.11;69.75
20350;BME280;10332;50.208;18.988;2023-01-26T14:28:30;98264.28;;;5.06;69.82
20350;BME280;10332;50.208;18.988;2023-01-26T14:31:14;98268.34;;;4.92;70.14
20350;BME280;10332;50.208;18.988;2023-01-26T14:33:43;98263.06;;;4.95;70.18
20350;BME280;10332;50.208;18.988;2023-01-26T14:36:18;98263.84;;;4.97;70.17
20350;BME280;10332;50.208;18.988;2023-01-26T14:38:49;98266.50;;;4.95;70.15
20350;BME280;10332;50.208;18.988;2023-01-26T14:41:25;98263.16;;;4.92;70.27
20350;BME280;10332;50.208;18.988;2023-01-26T14:43:57;98258.84;;;4.92;70.60
20350;BME280;10332;50.208;18.988;2023-01-26T14:52:33;98248.78;;;4.86;70.93
20350;BME280;10332;50.208;18.988;2023-01-26T14:55:20;98242.88;;;4.82;70.98
20350;BME280;10332;50.208;18.988;2023-01-26T14:57:49;98246.13;;;4.88;71.07
20350;BME280;10332;50.208;18.988;2023-01-26T15:00:34;98241.34;;;4.78;70.89
20350;BME280;10332;50.208;18.988;2023-01-26T15:03:38;98243.34;;;4.72;71.13
20350;BME280;10332;50.208;18.988;2023-01-26T15:08:52;98246.56;;;4.77;71.46
20350;BME280;10332;50.208;18.988;2023-01-26T15:11:33;98244.25;;;4.71;71.84
20350;BME280;10332;50.208;18.988;2023-01-26T15:17:41;98237.97;;;4.76;71.76
20350;BME280;10332;50.208;18.988;2023-01-26T15:22:50;98239.91;;;4.71;71.62
20350;BME280;10332;50.208;18.988;2023-01-26T15:25:25;98243.50;;;4.67;71.69
20350;BME280;10332;50.208;18.988;2023-01-26T15:27:58;98242.88;;;4.62;71.88